Time;durP1;ratioP1;P1;durP2;ratioP2;P2;SDS_P1;SDS_P2;PMS_P1;PMS_P2;Temp;Humidity;BMP_temperature;BMP_pressure;BME280_temperature;BME280_humidity;BME280_pressure;Samples;Min_cycle;Max_cycle;Signal;HPM_P1;HPM_P2
2022/07/17 00:00:21;;;;;;;3.40;2.37;;;;;;;;;;5030322;28;20939;-73
2022/07/17 00:02:50;;;;;;;1.67;1.30;;;;;;;;;;5030404;28;20493;-73
2022/07/17 00:05:16;;;;;;;1.83;1.80;;;;;;;;;;5030498;28;20779;-73
2022/07/17 00:07:42;;;;;;;1.50;1.50;;;;;;;;;;5030795;28;20447;-73
2022/07/17 00:10:09;;;;;;;3.70;1.67;;;;;;;;;;5030435;28;20431;-73
2022/07/17 00:12:35;;;;;;;1.90;1.80;;;;;;;;;;5030358;28;20438;-73
2022/07/17 00:15:01;;;;;;;7.17;1.60;;;;;;;;;;5029966;28;20445;-72
2022/07/17 00:17:27;;;;;;;1.90;1.37;;;;;;;;;;5029034;28;21822;-72
2022/07/17 00:19:53;;;;;;;1.53;1.50;;;;;;;;;;5029631;28;20443;-72
2022/07/17 00:22:20;;;;;;;3.23;1.70;;;;;;;;;;5029920;28;20521;-72
2022/07/17 00:24:46;;;;;;;1.80;1.70;;;;;;;;;;5029776;28;20912;-72
2022/07/17 00:27:12;;;;;;;2.70;1.70;;;;;;;;;;5031444;28;20446;-72
2022/07/17 00:29:38;;;;;;;1.57;1.57;;;;;;;;;;5029911;28;20478;-73
2022/07/17 00:32:04;;;;;;;3.40;1.60;;;;;;;;;;5031289;28;20447;-74
2022/07/17 00:34:30;;;;;;;3.63;1.80;;;;;;;;;;5029826;28;20431;-73
2022/07/17 00:36:56;;;;;;;1.43;1.43;;;;;;;;;;5030872;28;20447;-72
2022/07/17 00:39:22;;;;;;;2.50;1.90;;;;;;;;;;5029862;28;20429;-72
2022/07/17 00:41:48;;;;;;;1.30;1.30;;;;;;;;;;5030719;28;20308;-72
2022/07/17 00:44:14;;;;;;;1.90;1.77;;;;;;;;;;5028934;28;20438;-72
2022/07/17 00:46:40;;;;;;;1.33;1.33;;;;;;;;;;5029998;28;20200;-72
2022/07/17 00:49:07;;;;;;;1.50;1.50;;;;;;;;;;5028316;28;20470;-73
2022/07/17 00:51:33;;;;;;;2.20;2.13;;;;;;;;;;5029256;28;20431;-72
2022/07/17 00:54:00;;;;;;;2.43;1.97;;;;;;;;;;5029204;28;20498;-72
2022/07/17 00:56:27;;;;;;;5.80;1.80;;;;;;;;;;5029285;28;20438;-72
2022/07/17 00:58:53;;;;;;;2.00;1.90;;;;;;;;;;5028941;28;20615;-72
2022/07/17 01:01:19;;;;;;;1.60;1.60;;;;;;;;;;5029119;28;20820;-72
2022/07/17 01:03:45;;;;;;;1.60;1.60;;;;;;;;;;5028942;28;20438;-73
2022/07/17 01:06:11;;;;;;;2.87;1.90;;;;;;;;;;5029942;28;20467;-72
2022/07/17 01:08:38;;;;;;;2.47;1.50;;;;;;;;;;5029832;28;20470;-73
2022/07/17 01:11:04;;;;;;;1.70;1.60;;;;;;;;;;5028796;28;20431;-72
2022/07/17 01:13:31;;;;;;;2.00;1.90;;;;;;;;;;5028836;28;20449;-72
2022/07/17 01:15:57;;;;;;;5.40;2.00;;;;;;;;;;5029541;28;20438;-72
2022/07/17 01:18:23;;;;;;;2.00;1.97;;;;;;;;;;5028264;28;20431;-73
2022/07/17 01:20:49;;;;;;;1.77;1.77;;;;;;;;;;5028616;28;20459;-72
2022/07/17 01:23:16;;;;;;;1.60;1.50;;;;;;;;;;5029257;28;20539;-72
2022/07/17 01:25:42;;;;;;;1.70;1.60;;;;;;;;;;5029073;28;20435;-72
2022/07/17 01:28:08;;;;;;;1.50;1.50;;;;;;;;;;5029745;28;20443;-72
2022/07/17 01:30:34;;;;;;;1.50;1.50;;;;;;;;;;5028742;28;20424;-73
2022/07/17 01:33:00;;;;;;;2.23;1.37;;;;;;;;;;5029517;28;20442;-72
2022/07/17 01:35:26;;;;;;;1.47;1.47;;;;;;;;;;5028699;28;20439;-73
2022/07/17 01:37:52;;;;;;;2.10;2.00;;;;;;;;;;5029706;28;20419;-72
2022/07/17 01:40:18;;;;;;;1.53;1.53;;;;;;;;;;5029131;28;20446;-72
2022/07/17 01:42:46;;;;;;;1.50;1.50;;;;;;;;;;5029335;28;20490;-72
2022/07/17 01:45:12;;;;;;;1.37;1.33;;;;;;;;;;5028604;28;20442;-72
2022/07/17 01:47:38;;;;;;;1.97;1.90;;;;;;;;;;5028723;28;20481;-72
2022/07/17 01:50:05;;;;;;;1.47;1.47;;;;;;;;;;5028405;28;20435;-73
2022/07/17 01:52:31;;;;;;;1.50;1.50;;;;;;;;;;5028320;28;20470;-72
2022/07/17 01:54:57;;;;;;;1.57;1.57;;;;;;;;;;5029382;28;20926;-73
2022/07/17 01:57:23;;;;;;;2.40;2.27;;;;;;;;;;5028637;28;20565;-72
2022/07/17 01:59:49;;;;;;;1.67;1.53;;;;;;;;;;5029741;28;20795;-72
2022/07/17 02:02:15;;;;;;;1.80;1.80;;;;;;;;;;5032856;28;21014;-73
2022/07/17 02:04:42;;;;;;;1.80;1.80;;;;;;;;;;5032840;28;20509;-72
2022/07/17 02:07:08;;;;;;;1.70;1.70;;;;;;;;;;5033458;28;20514;-73
2022/07/17 02:09:35;;;;;;;1.77;1.67;;;;;;;;;;5032464;28;20477;-73
2022/07/17 02:12:01;;;;;;;1.63;1.63;;;;;;;;;;5031198;28;20432;-73
2022/07/17 02:14:27;;;;;;;5.30;2.13;;;;;;;;;;5032749;28;20466;-73
2022/07/17 02:16:53;;;;;;;2.27;2.17;;;;;;;;;;5033178;28;20427;-73
2022/07/17 02:19:19;;;;;;;2.27;2.17;;;;;;;;;;5032102;28;20433;-72
2022/07/17 02:21:45;;;;;;;2.80;2.60;;;;;;;;;;5032317;28;20568;-72
2022/07/17 02:24:11;;;;;;;2.13;2.03;;;;;;;;;;5032964;28;20877;-73
2022/07/17 02:26:37;;;;;;;1.90;1.90;;;;;;;;;;5031616;28;20426;-72
2022/07/17 02:29:03;;;;;;;1.60;1.60;;;;;;;;;;5032791;28;20184;-72
2022/07/17 02:31:29;;;;;;;1.43;1.43;;;;;;;;;;5032495;28;20431;-73
2022/07/17 02:33:55;;;;;;;2.77;1.53;;;;;;;;;;5032365;28;20183;-73
2022/07/17 02:36:21;;;;;;;2.00;2.00;;;;;;;;;;5032634;28;20427;-72
2022/07/17 02:38:47;;;;;;;2.50;2.40;;;;;;;;;;5031895;28;20530;-73
2022/07/17 02:41:13;;;;;;;2.70;2.50;;;;;;;;;;5032286;28;20519;-73
2022/07/17 02:43:39;;;;;;;2.90;2.80;;;;;;;;;;5032355;28;20443;-72
2022/07/17 02:46:05;;;;;;;3.00;1.80;;;;;;;;;;5032204;28;20477;-73
2022/07/17 02:48:31;;;;;;;1.70;1.70;;;;;;;;;;5031343;28;20196;-73
2022/07/17 02:50:57;;;;;;;1.50;1.40;;;;;;;;;;5031865;28;20427;-73
2022/07/17 02:53:23;;;;;;;2.20;2.10;;;;;;;;;;5031588;28;20491;-72
2022/07/17 02:55:49;;;;;;;2.10;2.10;;;;;;;;;;5029895;28;21219;-72
2022/07/17 02:58:15;;;;;;;2.13;1.40;;;;;;;;;;5030930;28;20809;-73
2022/07/17 03:00:41;;;;;;;1.63;1.63;;;;;;;;;;5030208;28;20427;-73
2022/07/17 03:03:07;;;;;;;1.53;1.53;;;;;;;;;;5029912;28;20497;-73
2022/07/17 03:05:33;;;;;;;1.40;1.40;;;;;;;;;;5030292;28;20454;-72
2022/07/17 03:07:59;;;;;;;1.50;1.50;;;;;;;;;;5030554;28;20447;-73
2022/07/17 03:10:25;;;;;;;1.53;1.53;;;;;;;;;;5030120;28;20467;-72
2022/07/17 03:12:50;;;;;;;2.00;2.00;;;;;;;;;;5030832;28;20203;-72
2022/07/17 03:15:16;;;;;;;1.47;1.47;;;;;;;;;;5030084;28;21194;-73
2022/07/17 03:17:42;;;;;;;1.50;1.50;;;;;;;;;;5030740;28;20488;-73
2022/07/17 03:20:09;;;;;;;3.13;1.73;;;;;;;;;;5030068;28;20457;-73
2022/07/17 03:22:35;;;;;;;2.67;1.80;;;;;;;;;;5030494;28;20479;-72
2022/07/17 03:25:01;;;;;;;1.93;1.83;;;;;;;;;;5030198;28;20942;-73
2022/07/17 03:27:27;;;;;;;1.77;1.77;;;;;;;;;;5029458;28;20446;-73
2022/07/17 03:29:54;;;;;;;4.60;2.17;;;;;;;;;;5030570;28;20423;-72
2022/07/17 03:32:20;;;;;;;4.00;1.60;;;;;;;;;;5030443;28;20637;-73
2022/07/17 03:34:46;;;;;;;1.40;1.40;;;;;;;;;;5029504;28;20439;-72
2022/07/17 03:37:12;;;;;;;5.03;1.93;;;;;;;;;;5030272;28;20427;-73
2022/07/17 03:39:38;;;;;;;2.00;2.00;;;;;;;;;;5029291;28;20456;-72
2022/07/17 03:42:05;;;;;;;2.23;1.87;;;;;;;;;;5030466;28;20556;-72
2022/07/17 03:44:31;;;;;;;1.57;1.50;;;;;;;;;;5030631;28;20442;-72
2022/07/17 03:46:57;;;;;;;1.63;1.53;;;;;;;;;;5029891;28;20439;-73
2022/07/17 03:49:22;;;;;;;2.10;2.00;;;;;;;;;;5029025;28;21002;-73
2022/07/17 03:51:49;;;;;;;2.73;1.90;;;;;;;;;;5030576;28;20935;-72
2022/07/17 03:54:15;;;;;;;2.03;1.60;;;;;;;;;;4994416;28;1051508;-80
2022/07/17 03:56:41;;;;;;;4.37;1.90;;;;;;;;;;5030278;28;20195;-80
2022/07/17 03:59:07;;;;;;;5.47;1.80;;;;;;;;;;5030664;28;20495;-82
2022/07/17 04:01:33;;;;;;;1.87;1.77;;;;;;;;;;5025388;28;20558;-81
2022/07/17 04:03:59;;;;;;;2.00;2.00;;;;;;;;;;5030173;28;20255;-81
2022/07/17 04:06:25;;;;;;;1.50;1.50;;;;;;;;;;5046537;28;20545;-81
2022/07/17 04:08:51;;;;;;;3.50;1.30;;;;;;;;;;5030405;28;20435;-81
2022/07/17 04:11:17;;;;;;;2.40;2.00;;;;;;;;;;5031629;28;20189;-81
2022/07/17 04:13:43;;;;;;;1.80;1.80;;;;;;;;;;5030186;28;20185;-80
2022/07/17 04:16:09;;;;;;;2.57;2.37;;;;;;;;;;5030668;28;20227;-80
2022/07/17 04:18:36;;;;;;;2.10;1.80;;;;;;;;;;5029522;28;20443;-82
2022/07/17 04:21:03;;;;;;;1.50;1.50;;;;;;;;;;5030146;28;20419;-81
2022/07/17 04:23:29;;;;;;;2.50;2.30;;;;;;;;;;5029496;28;20552;-79
2022/07/17 04:25:56;;;;;;;1.10;1.10;;;;;;;;;;5031124;28;20423;-82
2022/07/17 04:28:23;;;;;;;2.00;1.90;;;;;;;;;;5031904;28;20466;-81
2022/07/17 04:30:50;;;;;;;15.73;2.20;;;;;;;;;;5027652;28;20973;-81
2022/07/17 04:33:16;;;;;;;2.13;2.03;;;;;;;;;;5029450;28;20845;-81
2022/07/17 04:35:42;;;;;;;2.07;1.97;;;;;;;;;;5030833;28;20949;-80
2022/07/17 04:38:08;;;;;;;1.77;1.70;;;;;;;;;;5029958;28;20435;-81
2022/07/17 04:40:35;;;;;;;1.70;1.70;;;;;;;;;;5030061;28;20516;-81
2022/07/17 04:43:01;;;;;;;4.33;1.60;;;;;;;;;;5029937;28;20841;-81
2022/07/17 04:45:27;;;;;;;2.13;2.13;;;;;;;;;;5030201;28;20489;-77
2022/07/17 04:47:53;;;;;;;2.50;2.10;;;;;;;;;;5029097;28;20435;-80
2022/07/17 04:50:19;;;;;;;2.00;1.90;;;;;;;;;;5029446;28;20494;-80
2022/07/17 04:52:45;;;;;;;6.90;2.13;;;;;;;;;;5029268;28;20467;-78
2022/07/17 04:55:11;;;;;;;2.50;2.40;;;;;;;;;;5029415;28;20435;-82
2022/07/17 04:57:37;;;;;;;3.23;2.03;;;;;;;;;;5028967;28;20379;-81
2022/07/17 05:00:05;;;;;;;1.60;1.60;;;;;;;;;;5029208;28;20426;-81
2022/07/17 05:02:31;;;;;;;2.30;2.20;;;;;;;;;;5029150;28;20482;-78
2022/07/17 05:04:56;;;;;;;1.50;1.50;;;;;;;;;;5028513;28;20847;-81
2022/07/17 05:07:23;;;;;;;1.60;1.60;;;;;;;;;;5029687;28;20200;-82
2022/07/17 05:09:49;;;;;;;1.87;1.80;;;;;;;;;;5029447;28;20423;-80
2022/07/17 05:12:15;;;;;;;1.93;1.60;;;;;;;;;;5011282;28;20439;-81
2022/07/17 05:14:41;;;;;;;7.00;1.83;;;;;;;;;;5026285;28;20770;-82
2022/07/17 05:17:07;;;;;;;1.80;1.70;;;;;;;;;;5028388;28;20442;-80
2022/07/17 05:19:33;;;;;;;3.07;2.07;;;;;;;;;;5027994;28;20431;-81
2022/07/17 05:22:00;;;;;;;2.07;1.93;;;;;;;;;;5027874;28;20478;-82
2022/07/17 05:24:26;;;;;;;2.33;2.10;;;;;;;;;;5029257;28;20474;-80
2022/07/17 05:26:52;;;;;;;2.50;2.00;;;;;;;;;;5029788;28;20510;-81
2022/07/17 05:29:18;;;;;;;1.63;1.63;;;;;;;;;;5028920;28;20184;-82
2022/07/17 05:31:44;;;;;;;1.87;1.87;;;;;;;;;;5029096;28;20435;-79
2022/07/17 05:34:09;;;;;;;2.27;1.97;;;;;;;;;;5028710;28;20943;-82
2022/07/17 05:36:35;;;;;;;1.80;1.80;;;;;;;;;;5029302;28;20480;-82
2022/07/17 05:39:01;;;;;;;2.23;2.10;;;;;;;;;;5028505;28;20443;-81
2022/07/17 05:41:27;;;;;;;4.57;1.63;;;;;;;;;;5028675;28;20189;-81
2022/07/17 05:43:53;;;;;;;2.00;1.90;;;;;;;;;;5029187;28;20443;-82
2022/07/17 05:46:19;;;;;;;6.53;1.90;;;;;;;;;;5029857;28;20439;-81
2022/07/17 05:48:45;;;;;;;2.10;1.90;;;;;;;;;;5027799;28;20948;-78
2022/07/17 05:51:11;;;;;;;6.03;1.73;;;;;;;;;;5028633;28;20435;-80
2022/07/17 05:53:37;;;;;;;1.50;1.40;;;;;;;;;;5027766;28;20487;-81
2022/07/17 05:56:03;;;;;;;1.73;1.73;;;;;;;;;;5028730;28;20560;-81
2022/07/17 05:58:29;;;;;;;1.60;1.60;;;;;;;;;;5028610;28;20782;-82
2022/07/17 06:00:55;;;;;;;4.30;1.77;;;;;;;;;;5028360;28;20868;-82
2022/07/17 06:03:21;;;;;;;16.50;1.77;;;;;;;;;;5027705;28;20653;-81
2022/07/17 06:05:47;;;;;;;1.63;1.63;;;;;;;;;;5029329;28;20419;-82
2022/07/17 06:08:13;;;;;;;1.50;1.40;;;;;;;;;;5029207;28;20184;-82
2022/07/17 06:10:39;;;;;;;4.83;2.20;;;;;;;;;;5027591;28;20281;-82
2022/07/17 06:13:05;;;;;;;1.80;1.70;;;;;;;;;;5027541;28;20465;-83
2022/07/17 06:15:31;;;;;;;1.50;1.30;;;;;;;;;;5029243;28;20431;-80
2022/07/17 06:18:03;;;;;;;3.50;1.67;;;;;;;;;;5028399;28;20534;-80
2022/07/17 06:20:29;;;;;;;1.97;1.87;;;;;;;;;;5027736;28;20431;-77
2022/07/17 06:22:55;;;;;;;1.50;1.50;;;;;;;;;;5027289;28;20501;-79
2022/07/17 06:25:21;;;;;;;1.43;1.10;;;;;;;;;;5027602;28;20527;-82
2022/07/17 06:27:47;;;;;;;2.00;1.70;;;;;;;;;;5028953;28;20522;-83
2022/07/17 06:30:14;;;;;;;1.53;1.53;;;;;;;;;;5028598;28;20474;-82
2022/07/17 06:32:40;;;;;;;1.83;1.30;;;;;;;;;;5028142;28;20481;-84
2022/07/17 06:35:06;;;;;;;2.73;1.80;;;;;;;;;;5026717;28;20439;-79
2022/07/17 06:37:32;;;;;;;1.60;1.50;;;;;;;;;;5027549;28;20444;-81
2022/07/17 06:39:58;;;;;;;1.63;1.53;;;;;;;;;;5028152;28;20447;-74
2022/07/17 06:42:24;;;;;;;3.80;2.13;;;;;;;;;;5026906;28;20512;-68
2022/07/17 06:44:50;;;;;;;1.53;1.37;;;;;;;;;;5028003;28;20195;-80
2022/07/17 06:47:16;;;;;;;4.83;1.63;;;;;;;;;;5031941;28;20923;-74
2022/07/17 06:49:43;;;;;;;1.70;1.70;;;;;;;;;;5030073;28;20641;-76
2022/07/17 06:52:09;;;;;;;2.37;2.17;;;;;;;;;;5031124;28;20713;-74
2022/07/17 06:54:35;;;;;;;5.43;1.63;;;;;;;;;;5031405;28;20513;-75
2022/07/17 06:57:01;;;;;;;2.43;2.33;;;;;;;;;;5031109;28;20962;-75
2022/07/17 06:59:27;;;;;;;6.03;1.67;;;;;;;;;;5031192;28;20637;-74
2022/07/17 07:01:53;;;;;;;2.30;1.80;;;;;;;;;;5031732;28;20518;-73
2022/07/17 07:04:19;;;;;;;2.47;2.33;;;;;;;;;;5031629;28;20469;-74
2022/07/17 07:06:45;;;;;;;2.20;2.03;;;;;;;;;;5030768;28;20246;-75
2022/07/17 07:09:13;;;;;;;1.73;1.63;;;;;;;;;;5031180;28;20516;-72
2022/07/17 07:11:40;;;;;;;2.37;2.27;;;;;;;;;;5031702;28;20254;-75
2022/07/17 07:14:06;;;;;;;1.70;1.70;;;;;;;;;;5031212;28;20518;-73
2022/07/17 07:16:32;;;;;;;3.70;1.87;;;;;;;;;;5031429;28;20429;-74
2022/07/17 07:18:58;;;;;;;2.37;1.50;;;;;;;;;;5030913;28;20423;-72
2022/07/17 07:21:26;;;;;;;2.50;1.40;;;;;;;;;;5030520;28;20435;-76
2022/07/17 07:23:51;;;;;;;1.53;1.53;;;;;;;;;;5031066;28;20867;-76
2022/07/17 07:26:17;;;;;;;3.70;1.97;;;;;;;;;;5030925;28;20436;-73
2022/07/17 07:28:43;;;;;;;1.93;1.80;;;;;;;;;;5029854;28;20792;-72
2022/07/17 07:31:10;;;;;;;2.03;1.27;;;;;;;;;;5030244;28;20474;-72
2022/07/17 07:33:36;;;;;;;3.43;1.90;;;;;;;;;;5030737;28;20943;-77
2022/07/17 07:36:02;;;;;;;2.87;2.00;;;;;;;;;;5031200;28;20427;-72
2022/07/17 07:38:28;;;;;;;1.87;1.87;;;;;;;;;;5029634;28;20771;-73
2022/07/17 07:40:55;;;;;;;1.70;1.70;;;;;;;;;;5030731;28;20467;-80
2022/07/17 07:43:21;;;;;;;1.77;1.77;;;;;;;;;;5030535;28;20590;-76
2022/07/17 07:45:47;;;;;;;1.67;1.57;;;;;;;;;;5031883;28;20419;-77
2022/07/17 07:48:13;;;;;;;1.67;1.57;;;;;;;;;;5029565;28;20969;-72
2022/07/17 07:50:39;;;;;;;1.90;1.67;;;;;;;;;;5029499;28;20470;-72
2022/07/17 07:53:05;;;;;;;1.60;1.60;;;;;;;;;;5030705;28;20603;-72
2022/07/17 07:55:31;;;;;;;2.60;1.67;;;;;;;;;;5029115;28;20511;-72
2022/07/17 07:58:08;;;;;;;2.90;1.40;;;;;;;;;;5029304;28;20459;-71
2022/07/17 08:00:34;;;;;;;1.73;1.67;;;;;;;;;;5030070;28;20433;-72
2022/07/17 08:03:00;;;;;;;1.40;1.30;;;;;;;;;;5028994;28;21623;-72
2022/07/17 08:05:26;;;;;;;5.03;2.00;;;;;;;;;;5030651;28;20428;-72
2022/07/17 08:07:52;;;;;;;2.00;1.60;;;;;;;;;;5029430;28;20855;-72
2022/07/17 08:10:18;;;;;;;1.67;1.57;;;;;;;;;;5030818;28;20443;-72
2022/07/17 08:12:44;;;;;;;1.77;1.63;;;;;;;;;;5030469;28;20522;-72
2022/07/17 08:15:10;;;;;;;2.10;1.90;;;;;;;;;;5030758;28;20806;-72
2022/07/17 08:17:36;;;;;;;1.63;1.63;;;;;;;;;;5030673;28;20920;-72
2022/07/17 08:20:03;;;;;;;6.83;1.70;;;;;;;;;;5029112;28;20431;-72
2022/07/17 08:22:29;;;;;;;2.20;1.93;;;;;;;;;;5030263;28;20289;-72
2022/07/17 08:24:55;;;;;;;2.33;1.80;;;;;;;;;;5030567;28;20931;-72
2022/07/17 08:27:22;;;;;;;4.03;1.70;;;;;;;;;;5029180;28;20447;-72
2022/07/17 08:29:48;;;;;;;1.60;1.50;;;;;;;;;;5027867;28;20813;-72
2022/07/17 08:32:14;;;;;;;1.40;1.40;;;;;;;;;;5027581;28;20974;-72
2022/07/17 08:34:40;;;;;;;2.20;2.10;;;;;;;;;;5029456;28;20435;-72
2022/07/17 08:37:06;;;;;;;5.00;2.30;;;;;;;;;;5029038;28;20192;-71
2022/07/17 08:39:31;;;;;;;3.73;1.83;;;;;;;;;;5029498;28;20180;-75
2022/07/17 08:41:57;;;;;;;1.93;1.77;;;;;;;;;;5028731;28;20462;-72
2022/07/17 08:44:23;;;;;;;2.13;2.00;;;;;;;;;;5029293;28;20538;-71
2022/07/17 08:46:49;;;;;;;2.40;2.20;;;;;;;;;;5027489;28;20431;-72
2022/07/17 08:49:20;;;;;;;1.50;1.40;;;;;;;;;;5029137;28;20443;-72
2022/07/17 08:51:46;;;;;;;2.20;2.10;;;;;;;;;;5029783;28;20966;-73
2022/07/17 08:54:12;;;;;;;3.47;1.80;;;;;;;;;;5029654;28;20497;-72
2022/07/17 08:56:38;;;;;;;3.83;1.87;;;;;;;;;;5029965;28;20439;-75
2022/07/17 08:59:04;;;;;;;1.77;1.67;;;;;;;;;;5027505;28;20435;-72
2022/07/17 09:01:30;;;;;;;1.77;1.67;;;;;;;;;;5028428;28;20792;-72
2022/07/17 09:04:05;;;;;;;2.17;2.07;;;;;;;;;;5029582;28;20451;-79
2022/07/17 09:06:31;;;;;;;1.83;1.23;;;;;;;;;;5030069;28;20423;-87
2022/07/17 09:09:11;;;;;;;2.30;1.67;;;;;;;;;;5028302;28;20454;-81
2022/07/17 09:11:50;;;;;;;4.63;1.63;;;;;;;;;;5029461;28;20423;-79
2022/07/17 09:14:16;;;;;;;1.30;1.30;;;;;;;;;;5029332;28;20488;-87
2022/07/17 09:16:56;;;;;;;3.00;2.07;;;;;;;;;;5029837;28;20446;-83
2022/07/17 09:19:32;;;;;;;2.03;1.93;;;;;;;;;;5029396;28;20431;-77
2022/07/17 09:22:05;;;;;;;1.90;1.90;;;;;;;;;;5027506;28;20474;-80
2022/07/17 09:24:42;;;;;;;2.17;2.07;;;;;;;;;;5028663;28;20498;-77
2022/07/17 09:27:08;;;;;;;8.23;2.07;;;;;;;;;;5029180;28;20446;-79
2022/07/17 09:29:34;;;;;;;1.60;1.27;;;;;;;;;;5029387;28;20454;-82
2022/07/17 09:32:00;;;;;;;1.90;1.80;;;;;;;;;;5027486;28;20435;-81
2022/07/17 09:34:26;;;;;;;1.47;1.47;;;;;;;;;;5028650;28;20984;-78
2022/07/17 09:37:02;;;;;;;2.03;1.93;;;;;;;;;;5027143;28;20431;-82
2022/07/17 09:39:35;;;;;;;3.90;1.50;;;;;;;;;;5028117;28;20443;-79
2022/07/17 09:42:01;;;;;;;3.37;1.77;;;;;;;;;;5027220;28;20471;-82
2022/07/17 09:44:26;;;;;;;1.80;1.70;;;;;;;;;;5028867;28;20560;-81
2022/07/17 09:46:53;;;;;;;1.40;1.40;;;;;;;;;;5026715;28;20185;-76
2022/07/17 09:49:19;;;;;;;2.40;1.53;;;;;;;;;;5028930;28;20523;-81
2022/07/17 09:51:46;;;;;;;3.03;1.13;;;;;;;;;;5028193;28;20471;-81
2022/07/17 09:54:12;;;;;;;1.40;1.30;;;;;;;;;;5028777;28;20482;-84
2022/07/17 09:56:39;;;;;;;2.07;1.97;;;;;;;;;;5028594;28;20993;-76
2022/07/17 09:59:06;;;;;;;2.17;2.00;;;;;;;;;;5029408;28;20454;-79
2022/07/17 10:01:33;;;;;;;1.77;1.77;;;;;;;;;;5028671;28;20422;-80
2022/07/17 10:03:59;;;;;;;1.40;1.40;;;;;;;;;;5028958;28;20431;-84
2022/07/17 10:06:26;;;;;;;1.80;1.70;;;;;;;;;;5029101;28;20427;-85
2022/07/17 10:08:53;;;;;;;1.77;1.67;;;;;;;;;;5029431;28;20469;-83
2022/07/17 10:11:21;;;;;;;7.30;2.13;;;;;;;;;;5027933;28;20455;-85
2022/07/17 10:13:47;;;;;;;2.90;2.90;;;;;;;;;;5027606;28;20473;-83
2022/07/17 10:16:14;;;;;;;2.30;1.47;;;;;;;;;;5029421;28;20431;-82
2022/07/17 10:18:44;;;;;;;1.57;1.47;;;;;;;;;;5028147;28;20450;-77
2022/07/17 10:21:14;;;;;;;1.20;1.20;;;;;;;;;;5030916;28;20419;-85
2022/07/17 10:23:47;;;;;;;1.23;1.23;;;;;;;;;;5032721;28;20509;-83
2022/07/17 10:26:14;;;;;;;4.57;1.80;;;;;;;;;;5033006;28;20471;-79
2022/07/17 10:28:44;;;;;;;2.00;2.00;;;;;;;;;;5032816;28;20898;-79
2022/07/17 10:31:10;;;;;;;2.03;1.70;;;;;;;;;;5032306;28;20427;-82
2022/07/17 10:33:36;;;;;;;1.53;1.47;;;;;;;;;;5031180;28;20439;-85
2022/07/17 10:36:03;;;;;;;1.10;1.10;;;;;;;;;;5031200;28;20439;-79
2022/07/17 10:38:29;;;;;;;1.43;1.43;;;;;;;;;;5031284;28;20486;-83
2022/07/17 10:41:02;;;;;;;1.30;1.30;;;;;;;;;;5032395;28;20903;-81
2022/07/17 10:43:28;;;;;;;1.87;1.70;;;;;;;;;;5032343;28;20874;-79
2022/07/17 10:45:54;;;;;;;2.20;2.00;;;;;;;;;;5033272;28;20422;-76
2022/07/17 10:48:20;;;;;;;1.50;1.50;;;;;;;;;;5032281;28;20431;-73
2022/07/17 10:50:48;;;;;;;3.50;2.13;;;;;;;;;;5031661;28;20431;-81
2022/07/17 10:53:17;;;;;;;1.80;1.80;;;;;;;;;;5031929;28;20478;-78
2022/07/17 10:55:45;;;;;;;3.00;1.70;;;;;;;;;;5030770;28;20430;-78
2022/07/17 10:58:18;;;;;;;1.57;1.53;;;;;;;;;;5032063;28;20530;-73
2022/07/17 11:00:55;;;;;;;2.00;2.00;;;;;;;;;;5030382;28;20426;-69
2022/07/17 11:03:21;;;;;;;3.37;1.63;;;;;;;;;;5031132;28;20485;-69
2022/07/17 11:05:47;;;;;;;2.03;2.03;;;;;;;;;;5032139;28;20919;-68
2022/07/17 11:08:14;;;;;;;1.30;1.30;;;;;;;;;;5032174;28;20435;-67
2022/07/17 11:10:40;;;;;;;2.20;1.70;;;;;;;;;;5030511;28;20428;-70
2022/07/17 11:13:13;;;;;;;2.20;1.67;;;;;;;;;;5031857;28;20434;-71
2022/07/17 11:15:44;;;;;;;4.10;2.00;;;;;;;;;;5030015;28;20428;-68
2022/07/17 11:18:20;;;;;;;2.07;1.97;;;;;;;;;;5030133;28;20500;-71
2022/07/17 11:20:50;;;;;;;1.80;1.60;;;;;;;;;;5030423;28;20806;-72
2022/07/17 11:23:16;;;;;;;2.00;1.80;;;;;;;;;;5031840;28;20487;-68
2022/07/17 11:25:58;;;;;;;2.83;1.30;;;;;;;;;;5031906;28;20426;-71
2022/07/17 11:28:40;;;;;;;1.40;1.30;;;;;;;;;;5032150;28;20427;-72
2022/07/17 11:31:20;;;;;;;1.97;1.97;;;;;;;;;;5030693;28;20439;-73
2022/07/17 11:33:57;;;;;;;5.83;1.70;;;;;;;;;;5031463;28;21447;-72
2022/07/17 11:36:27;;;;;;;3.60;1.57;;;;;;;;;;5031992;28;20455;-73
2022/07/17 11:38:54;;;;;;;4.00;2.00;;;;;;;;;;5031426;28;20435;-74
2022/07/17 11:41:20;;;;;;;3.13;1.90;;;;;;;;;;5030972;28;20420;-74
2022/07/17 11:43:47;;;;;;;2.30;2.10;;;;;;;;;;5031402;28;20544;-70
2022/07/17 11:46:15;;;;;;;1.87;1.77;;;;;;;;;;5031437;28;20461;-75
2022/07/17 11:48:42;;;;;;;1.57;1.57;;;;;;;;;;5029363;28;20493;-72
2022/07/17 11:51:07;;;;;;;3.70;1.63;;;;;;;;;;5031271;28;20450;-70
2022/07/17 11:53:34;;;;;;;1.80;1.80;;;;;;;;;;5030246;28;20471;-70
2022/07/17 11:56:01;;;;;;;1.43;1.43;;;;;;;;;;5031495;28;20454;-72
2022/07/17 11:58:27;;;;;;;1.70;1.57;;;;;;;;;;5031131;28;20522;-70
2022/07/17 12:01:03;;;;;;;2.67;1.70;;;;;;;;;;5030914;28;20549;-70
2022/07/17 12:03:29;;;;;;;1.53;1.50;;;;;;;;;;5030541;28;20482;-71
2022/07/17 12:05:55;;;;;;;2.43;1.70;;;;;;;;;;5030816;28;20435;-73
2022/07/17 12:08:21;;;;;;;1.70;1.70;;;;;;;;;;5030777;28;20431;-72
2022/07/17 12:10:50;;;;;;;2.03;2.03;;;;;;;;;;5029939;28;20510;-72
2022/07/17 12:13:16;;;;;;;3.20;1.97;;;;;;;;;;5030609;28;20443;-73
2022/07/17 12:15:43;;;;;;;2.03;1.83;;;;;;;;;;5032070;28;20521;-68
2022/07/17 12:18:23;;;;;;;1.90;1.80;;;;;;;;;;5031533;28;20446;-72
2022/07/17 12:20:51;;;;;;;3.37;1.80;;;;;;;;;;5030450;28;20452;-68
2022/07/17 12:23:27;;;;;;;4.13;1.60;;;;;;;;;;5030973;28;20475;-67
2022/07/17 12:26:03;;;;;;;5.63;2.03;;;;;;;;;;5031877;28;20458;-71
2022/07/17 12:28:30;;;;;;;1.70;1.70;;;;;;;;;;5030787;28;20450;-72
2022/07/17 12:30:56;;;;;;;3.80;1.47;;;;;;;;;;5030509;28;20450;-67
2022/07/17 12:33:22;;;;;;;2.77;1.40;;;;;;;;;;5029849;28;20447;-70
2022/07/17 12:35:47;;;;;;;4.50;1.83;;;;;;;;;;5030282;28;20512;-66
2022/07/17 12:38:14;;;;;;;1.80;1.70;;;;;;;;;;5030655;28;20415;-81
2022/07/17 12:40:41;;;;;;;8.60;2.10;;;;;;;;;;5029829;28;20431;-86
2022/07/17 12:43:08;;;;;;;1.83;1.73;;;;;;;;;;5029711;28;20490;-85
2022/07/17 12:45:34;;;;;;;3.23;1.57;;;;;;;;;;5030069;28;20435;-86
2022/07/17 12:48:00;;;;;;;3.90;1.60;;;;;;;;;;5028650;28;20447;-85
2022/07/17 12:50:26;;;;;;;1.90;1.60;;;;;;;;;;5031161;28;20427;-84
2022/07/17 12:52:52;;;;;;;2.37;1.30;;;;;;;;;;5027729;28;20489;-82
2022/07/17 12:55:18;;;;;;;3.53;1.80;;;;;;;;;;5027699;28;20445;-72
2022/07/17 12:57:44;;;;;;;1.57;1.40;;;;;;;;;;5029560;28;20807;-85
2022/07/17 13:00:11;;;;;;;1.80;1.23;;;;;;;;;;5029260;28;20475;-85
2022/07/17 13:02:37;;;;;;;1.40;1.40;;;;;;;;;;5027914;28;20480;-87
2022/07/17 13:05:03;;;;;;;2.27;1.70;;;;;;;;;;5027659;28;20510;-86
2022/07/17 13:07:29;;;;;;;2.80;1.57;;;;;;;;;;5029263;28;20798;-84
2022/07/17 13:09:55;;;;;;;1.50;1.50;;;;;;;;;;5027962;28;20919;-85
2022/07/17 13:12:21;;;;;;;1.63;1.63;;;;;;;;;;5028285;28;20427;-84
2022/07/17 13:14:47;;;;;;;1.70;1.70;;;;;;;;;;5029184;28;20518;-82
2022/07/17 13:17:13;;;;;;;1.57;1.57;;;;;;;;;;5029391;28;20427;-85
2022/07/17 13:19:39;;;;;;;1.80;1.70;;;;;;;;;;5029484;28;20859;-86
2022/07/17 13:22:05;;;;;;;2.20;2.17;;;;;;;;;;5027384;28;20506;-86
2022/07/17 13:24:32;;;;;;;4.83;1.30;;;;;;;;;;5029670;28;20437;-88
2022/07/17 13:26:58;;;;;;;1.63;1.63;;;;;;;;;;5028366;28;20434;-80
2022/07/17 13:29:26;;;;;;;1.53;1.53;;;;;;;;;;5029593;28;20477;-86
2022/07/17 13:31:52;;;;;;;1.60;1.50;;;;;;;;;;5027036;28;20955;-82
2022/07/17 13:34:18;;;;;;;1.40;1.40;;;;;;;;;;5028250;28;20446;-79
2022/07/17 13:36:44;;;;;;;5.00;2.07;;;;;;;;;;5029555;28;20427;-84
2022/07/17 13:39:10;;;;;;;4.43;2.30;;;;;;;;;;5028333;28;20411;-79
2022/07/17 13:41:37;;;;;;;2.00;2.00;;;;;;;;;;5028998;28;20451;-75
2022/07/17 13:44:03;;;;;;;11.33;1.77;;;;;;;;;;5028400;28;20443;-77
2022/07/17 13:46:29;;;;;;;2.00;1.77;;;;;;;;;;5023932;28;20490;-81
2022/07/17 13:48:55;;;;;;;1.73;1.63;;;;;;;;;;5027550;28;20897;-77
2022/07/17 13:51:21;;;;;;;1.80;1.70;;;;;;;;;;5027728;28;21582;-82
2022/07/17 13:53:47;;;;;;;1.80;1.80;;;;;;;;;;5028977;28;20913;-74
2022/07/17 13:56:13;;;;;;;1.50;1.50;;;;;;;;;;5032451;28;20521;-82
2022/07/17 13:58:39;;;;;;;2.87;1.37;;;;;;;;;;5033302;28;20905;-80
2022/07/17 14:01:05;;;;;;;2.37;1.37;;;;;;;;;;5032084;28;20446;-79
2022/07/17 14:03:32;;;;;;;2.37;1.27;;;;;;;;;;5033219;28;20482;-84
2022/07/17 14:05:58;;;;;;;10.43;1.80;;;;;;;;;;5029542;28;20438;-78
2022/07/17 14:08:24;;;;;;;2.17;1.97;;;;;;;;;;5032428;28;20443;-83
2022/07/17 14:10:50;;;;;;;1.43;1.43;;;;;;;;;;5032266;28;20435;-84
2022/07/17 14:13:16;;;;;;;2.63;2.00;;;;;;;;;;5031995;28;20454;-73
2022/07/17 14:15:42;;;;;;;1.17;1.17;;;;;;;;;;5032634;28;20415;-77
2022/07/17 14:18:08;;;;;;;1.20;1.20;;;;;;;;;;5030886;28;20846;-77
2022/07/17 14:20:34;;;;;;;1.60;1.60;;;;;;;;;;5032321;28;20445;-81
2022/07/17 14:23:00;;;;;;;1.73;1.73;;;;;;;;;;5033081;28;20479;-79
2022/07/17 14:25:26;;;;;;;2.53;1.70;;;;;;;;;;5031339;28;20431;-80
2022/07/17 14:27:52;;;;;;;1.90;1.90;;;;;;;;;;5031036;28;20443;-81
2022/07/17 14:30:18;;;;;;;10.70;2.30;;;;;;;;;;5031442;28;20449;-77
2022/07/17 14:32:44;;;;;;;5.73;1.90;;;;;;;;;;5031901;28;20479;-83
2022/07/17 14:35:10;;;;;;;1.50;1.40;;;;;;;;;;5030859;28;20467;-76
2022/07/17 14:37:36;;;;;;;1.90;1.60;;;;;;;;;;5031925;28;20454;-78
2022/07/17 14:40:02;;;;;;;2.10;1.20;;;;;;;;;;5030216;28;20427;-79